Time;durP1;ratioP1;P1;durP2;ratioP2;P2;SDS_P1;SDS_P2;PMS_P1;PMS_P2;Temp;Humidity;BMP_temperature;BMP_pressure;BME280_temperature;BME280_humidity;BME280_pressure;Samples;Min_cycle;Max_cycle;Signal;HPM_P1;HPM_P2
2023/03/30 00:00:42;;;;;;;4.82;3.10;;;;;;;11.61;100.00;100521.13;5109693;28;20055;-71
2023/03/30 00:03:08;;;;;;;6.22;2.72;;;;;;;11.60;100.00;100541.66;5109483;28;20496;-71
2023/03/30 00:05:35;;;;;;;11.85;3.15;;;;;;;11.63;100.00;100538.59;5109566;28;20031;-70
2023/03/30 00:08:01;;;;;;;5.85;2.70;;;;;;;11.67;100.00;100538.97;5109715;28;20032;-70
2023/03/30 00:10:28;;;;;;;5.70;2.85;;;;;;;11.70;100.00;100530.53;5109332;28;20116;-71
2023/03/30 00:12:54;;;;;;;7.18;3.55;;;;;;;11.68;100.00;100519.25;5109439;28;20486;-71
2023/03/30 00:15:22;;;;;;;4.50;2.70;;;;;;;11.72;100.00;100525.81;5109913;28;20173;-71
2023/03/30 00:17:49;;;;;;;6.93;3.85;;;;;;;11.70;100.00;100522.53;5090961;28;20036;-70
2023/03/30 00:20:16;;;;;;;4.60;2.50;;;;;;;11.75;100.00;100513.88;5109545;28;20038;-70
2023/03/30 00:22:44;;;;;;;6.18;2.95;;;;;;;11.80;99.87;100506.88;5109298;28;20111;-70
2023/03/30 00:25:12;;;;;;;7.82;3.08;;;;;;;11.78;100.00;100508.09;5109286;28;20122;-70
2023/03/30 00:27:38;;;;;;;10.88;3.75;;;;;;;11.74;100.00;100507.72;5109221;28;20500;-70
2023/03/30 00:30:12;;;;;;;9.38;2.45;;;;;;;11.67;100.00;100504.25;5109271;28;20036;-71
2023/03/30 00:32:38;;;;;;;5.75;3.13;;;;;;;11.71;99.84;100513.50;5109508;28;20043;-70
2023/03/30 00:35:04;;;;;;;6.07;2.70;;;;;;;11.71;99.67;100499.28;5109530;28;20053;-71
2023/03/30 00:37:31;;;;;;;4.72;2.40;;;;;;;11.77;99.25;100493.13;5089635;28;20032;-70
2023/03/30 00:39:56;;;;;;;7.47;2.92;;;;;;;11.80;98.74;100495.38;5089509;28;20106;-70
2023/03/30 00:42:22;;;;;;;5.10;3.17;;;;;;;11.79;98.89;100493.72;5089711;28;20028;-70
2023/03/30 00:45:06;;;;;;;4.80;2.22;;;;;;;11.81;98.52;100492.47;5089590;28;20028;-70
2023/03/30 00:47:33;;;;;;;11.40;4.20;;;;;;;11.76;98.30;100481.63;5089760;28;20039;-70
2023/03/30 00:49:59;;;;;;;4.28;2.55;;;;;;;11.77;98.36;100479.75;5089546;28;20031;-70
2023/03/30 00:52:26;;;;;;;8.35;2.67;;;;;;;11.74;98.43;100461.50;5089552;28;20386;-70
2023/03/30 00:54:56;;;;;;;6.88;2.63;;;;;;;11.76;98.06;100470.94;5089724;28;20043;-70
2023/03/30 00:57:23;;;;;;;5.55;2.40;;;;;;;11.74;98.13;100466.84;5089340;28;20459;-70
2023/03/30 00:59:51;;;;;;;3.10;2.13;;;;;;;11.71;97.55;100459.22;5089347;28;20625;-70
2023/03/30 01:02:17;;;;;;;6.80;2.40;;;;;;;11.63;97.71;100447.78;5089543;28;20026;-70
2023/03/30 01:04:45;;;;;;;6.50;3.85;;;;;;;11.60;97.57;100448.19;5089450;28;20039;-70
2023/03/30 01:07:11;;;;;;;4.13;2.15;;;;;;;11.61;97.50;100436.47;5089455;28;20082;-70
2023/03/30 01:09:38;;;;;;;4.72;2.45;;;;;;;11.48;98.00;100417.84;5089135;28;20071;-70
2023/03/30 01:12:04;;;;;;;3.65;2.20;;;;;;;11.59;97.60;100433.19;5088830;28;20040;-70
2023/03/30 01:14:31;;;;;;;2.97;2.00;;;;;;;11.62;97.89;100435.44;5088874;28;20028;-71
2023/03/30 01:17:00;;;;;;;5.03;2.30;;;;;;;11.67;97.62;100440.16;5088984;28;20024;-70
2023/03/30 01:20:08;;;;;;;13.73;2.85;;;;;;;11.71;97.51;100437.84;5089067;28;20107;-70
2023/03/30 01:22:45;;;;;;;11.45;3.10;;;;;;;11.74;97.15;100435.59;5088507;28;20024;-70
2023/03/30 01:25:48;;;;;;;3.28;2.22;;;;;;;11.76;97.20;100436.19;5089037;28;20024;-70
2023/03/30 01:28:35;;;;;;;4.95;2.05;;;;;;;11.76;97.59;100441.53;5084665;28;20059;-70
2023/03/30 01:31:20;;;;;;;7.82;3.30;;;;;;;11.74;97.31;100442.78;5088912;28;20036;-70
2023/03/30 01:34:01;;;;;;;6.60;3.03;;;;;;;11.81;96.60;100443.56;5088859;28;20028;-70
2023/03/30 01:36:44;;;;;;;3.55;2.00;;;;;;;11.78;97.58;100436.78;5090230;28;20039;-70
2023/03/30 01:39:57;;;;;;;3.83;2.08;;;;;;;11.84;97.53;100437.78;5092763;28;20047;-70
2023/03/30 01:42:35;;;;;;;4.20;1.80;;;;;;;11.90;96.90;100439.63;5009326;28;20113;-70
2023/03/30 01:45:37;;;;;;;4.93;2.25;;;;;;;11.93;97.13;100433.03;5009571;28;20037;-70
2023/03/30 01:48:15;;;;;;;4.97;2.03;;;;;;;11.95;96.52;100439.81;5097128;28;20039;-70
2023/03/30 01:50:49;;;;;;;4.90;1.90;;;;;;;11.94;96.59;100423.97;5111843;28;20035;-70
2023/03/30 01:53:23;;;;;;;5.32;2.50;;;;;;;11.96;96.22;100416.56;5112046;28;20027;-70
2023/03/30 01:55:56;;;;;;;8.25;3.17;;;;;;;11.95;95.78;100409.59;5111960;28;20070;-70
2023/03/30 01:58:31;;;;;;;3.95;2.00;;;;;;;11.97;95.77;100399.47;5111833;28;20020;-70
2023/03/30 02:00:59;;;;;;;4.97;2.35;;;;;;;11.94;95.46;100398.06;5092949;28;20023;-70
2023/03/30 02:03:29;;;;;;;4.80;1.92;;;;;;;12.04;94.86;100414.44;5111942;28;20470;-71
2023/03/30 02:06:02;;;;;;;4.72;2.53;;;;;;;12.10;95.44;100425.31;5111639;28;20038;-70
2023/03/30 02:08:31;;;;;;;6.30;2.80;;;;;;;12.14;94.66;100415.81;5111126;28;20027;-70
2023/03/30 02:10:58;;;;;;;2.67;1.60;;;;;;;12.27;93.91;100419.19;5111478;28;20048;-71
2023/03/30 02:13:26;;;;;;;3.35;1.92;;;;;;;12.37;93.32;100420.59;5111578;28;20215;-71
2023/03/30 02:16:21;;;;;;;3.95;1.75;;;;;;;12.37;93.20;100416.03;5097085;28;20031;-70
2023/03/30 02:18:46;;;;;;;6.10;2.08;;;;;;;12.40;92.96;100428.97;5092033;28;20496;-71
2023/03/30 02:21:12;;;;;;;6.50;2.28;;;;;;;12.34;93.17;100421.00;5073551;28;20024;-70
2023/03/30 02:23:41;;;;;;;3.05;2.10;;;;;;;12.38;92.34;100423.00;5091826;28;20028;-70
2023/03/30 02:26:07;;;;;;;5.63;2.67;;;;;;;12.52;92.04;100429.06;5091719;28;20536;-70
2023/03/30 02:28:33;;;;;;;7.70;2.45;;;;;;;12.51;92.33;100419.41;5091829;28;20032;-70
2023/03/30 02:30:59;;;;;;;2.47;1.60;;;;;;;12.52;91.99;100417.53;5091673;28;20040;-70
2023/03/30 02:33:41;;;;;;;6.10;1.98;;;;;;;12.48;91.84;100420.66;5091389;28;20036;-70
2023/03/30 02:36:17;;;;;;;5.75;1.80;;;;;;;12.41;92.28;100417.22;5091303;28;20019;-70
2023/03/30 02:38:57;;;;;;;2.50;1.88;;;;;;;12.37;92.40;100420.59;5091368;28;20056;-70
2023/03/30 02:41:28;;;;;;;5.60;2.90;;;;;;;12.28;93.33;100426.19;5091385;28;20051;-70
2023/03/30 02:44:18;;;;;;;5.18;2.15;;;;;;;12.23;93.61;100420.66;5091259;28;20117;-70
2023/03/30 02:47:01;;;;;;;5.35;2.72;;;;;;;12.23;94.06;100423.34;5091191;28;20024;-70
2023/03/30 02:49:53;;;;;;;5.30;2.53;;;;;;;12.20;94.75;100422.97;5090383;28;20098;-70
2023/03/30 02:52:24;;;;;;;4.22;2.10;;;;;;;12.23;94.40;100425.19;5091261;28;20020;-70
2023/03/30 02:55:12;;;;;;;4.18;1.83;;;;;;;12.25;94.31;100421.28;5091327;28;20035;-70
2023/03/30 02:57:54;;;;;;;8.43;2.30;;;;;;;12.26;94.54;100427.44;5091131;28;20093;-70
2023/03/30 03:00:27;;;;;;;;;;;;;;;12.27;95.35;100424.56;5091461;28;20032;-70
2023/03/30 03:02:56;;;;;;;3.55;1.90;;;;;;;12.29;94.02;100421.66;5090991;28;20400;-71
2023/03/30 03:05:24;;;;;;;3.47;1.95;;;;;;;12.32;93.29;100423.09;5091022;28;20483;-70
2023/03/30 03:07:49;;;;;;;4.53;2.10;;;;;;;12.33;93.82;100427.38;5091148;28;20035;-70
2023/03/30 03:10:15;;;;;;;3.45;1.80;;;;;;;12.38;93.65;100417.66;5090107;28;20052;-70
2023/03/30 03:12:43;;;;;;;4.22;2.20;;;;;;;12.37;93.30;100407.22;5090908;28;20430;-70
2023/03/30 03:15:10;;;;;;;4.45;2.13;;;;;;;12.41;92.93;100416.41;5090959;28;20032;-70
2023/03/30 03:17:35;;;;;;;2.70;2.08;;;;;;;12.43;93.03;100411.66;5090836;28;20059;-70
2023/03/30 03:20:02;;;;;;;6.35;2.63;;;;;;;12.45;92.89;100412.28;5090851;28;20056;-70
2023/03/30 03:22:28;;;;;;;5.18;1.98;;;;;;;12.44;92.93;100413.28;5090825;28;20050;-70
2023/03/30 03:24:53;;;;;;;6.40;2.22;;;;;;;12.49;93.10;100419.63;5090485;28;20663;-70
2023/03/30 03:27:19;;;;;;;4.82;2.22;;;;;;;12.49;93.42;100427.63;5090522;28;20458;-70
2023/03/30 03:29:44;;;;;;;8.40;1.98;;;;;;;12.50;92.99;100431.16;5090011;28;20554;-70
2023/03/30 03:32:09;;;;;;;5.53;2.28;;;;;;;12.53;92.25;100420.00;5090426;28;20093;-70
2023/03/30 03:34:35;;;;;;;5.32;2.03;;;;;;;12.47;92.18;100410.19;5090511;28;20119;-70
2023/03/30 03:37:01;;;;;;;3.97;1.80;;;;;;;12.59;92.07;100415.63;5090439;28;20055;-70
2023/03/30 03:39:26;;;;;;;4.63;2.28;;;;;;;12.56;92.59;100400.03;5090357;28;20586;-70
2023/03/30 03:41:52;;;;;;;6.75;2.85;;;;;;;12.55;92.55;100407.25;5090170;28;20098;-70
2023/03/30 03:44:17;;;;;;;3.38;2.10;;;;;;;12.54;92.96;100402.09;5090258;28;20035;-70
2023/03/30 03:46:42;;;;;;;22.67;3.92;;;;;;;12.49;92.93;100398.22;5090016;28;20027;-70
2023/03/30 03:49:08;;;;;;;5.55;2.08;;;;;;;12.52;92.66;100394.28;5089882;28;20119;-70
2023/03/30 03:51:34;;;;;;;11.18;2.50;;;;;;;12.49;93.10;100373.34;5089886;28;20028;-70
2023/03/30 03:54:00;;;;;;;7.13;2.20;;;;;;;12.49;93.10;100374.16;5089997;28;20089;-70
2023/03/30 03:56:25;;;;;;;4.90;2.13;;;;;;;12.48;92.92;100391.25;5071883;28;20471;-70
2023/03/30 03:58:51;;;;;;;3.38;1.90;;;;;;;12.47;93.08;100396.81;5089712;28;20067;-70
2023/03/30 04:01:16;;;;;;;4.93;2.42;;;;;;;12.46;92.76;100379.94;5071742;28;20489;-70
2023/03/30 04:03:42;;;;;;;7.10;2.33;;;;;;;12.51;91.54;100379.28;5090027;28;20132;-70
2023/03/30 04:06:08;;;;;;;7.65;2.33;;;;;;;12.53;92.41;100371.88;5071537;28;20036;-70
2023/03/30 04:08:34;;;;;;;6.10;2.38;;;;;;;12.54;91.87;100368.13;5090066;28;20035;-70
2023/03/30 04:11:10;;;;;;;3.22;1.88;;;;;;;12.52;92.40;100372.06;5089633;28;20491;-70
2023/03/30 04:13:37;;;;;;;7.30;3.75;;;;;;;12.49;91.55;100379.50;5089757;28;20081;-70
2023/03/30 04:16:02;;;;;;;3.83;1.95;;;;;;;12.48;92.23;100390.44;5089580;28;20024;-70
2023/03/30 04:18:32;;;;;;;3.08;1.85;;;;;;;12.43;92.28;100366.19;5089687;28;20032;-70
2023/03/30 04:21:03;;;;;;;3.42;1.92;;;;;;;12.45;92.99;100366.81;5089629;28;20388;-70
2023/03/30 04:23:30;;;;;;;;;;;;;;;12.44;93.96;100373.19;5090138;28;20510;-70
2023/03/30 04:26:00;;;;;;;6.55;2.20;;;;;;;12.38;94.23;100379.41;5089713;28;20309;-70
2023/03/30 04:28:28;;;;;;;5.50;2.50;;;;;;;12.36;95.04;100378.81;5089673;28;20374;-70
2023/03/30 04:30:58;;;;;;;3.90;1.63;;;;;;;12.31;94.81;100363.41;5089405;28;20120;-70
2023/03/30 04:33:25;;;;;;;2.75;1.77;;;;;;;12.26;95.01;100361.44;5089359;28;20505;-70
2023/03/30 04:35:50;;;;;;;8.77;2.58;;;;;;;12.21;95.24;100363.94;5089367;28;20027;-70
2023/03/30 04:38:21;;;;;;;6.43;3.00;;;;;;;12.14;96.06;100367.72;5089298;28;20540;-70
2023/03/30 04:40:48;;;;;;;6.22;2.55;;;;;;;12.12;95.47;100362.56;5089474;28;20112;-70
2023/03/30 04:43:13;;;;;;;3.08;2.22;;;;;;;12.09;96.45;100362.19;5089367;28;20032;-70
2023/03/30 04:45:39;;;;;;;4.30;1.90;;;;;;;12.02;97.28;100362.25;5089687;28;20501;-70
2023/03/30 04:48:05;;;;;;;2.38;1.90;;;;;;;11.99;97.35;100365.34;5089719;28;20028;-70
2023/03/30 04:50:30;;;;;;;7.45;2.17;;;;;;;11.92;97.34;100346.72;5089245;28;20032;-70
2023/03/30 04:52:56;;;;;;;3.70;2.30;;;;;;;11.93;97.80;100345.66;5071424;28;20032;-70
2023/03/30 04:55:22;;;;;;;7.07;2.10;;;;;;;11.86;97.98;100334.19;5089255;28;20040;-70
2023/03/30 04:57:48;;;;;;;9.38;3.50;;;;;;;11.93;97.91;100351.00;5089502;28;20047;-70
2023/03/30 05:00:14;;;;;;;4.70;2.28;;;;;;;11.84;98.90;100347.75;5089317;28;20040;-70
2023/03/30 05:02:39;;;;;;;7.00;2.33;;;;;;;11.81;98.47;100350.84;5090154;28;20027;-70
2023/03/30 05:05:05;;;;;;;6.63;2.50;;;;;;;11.80;98.84;100348.41;5108912;28;20031;-70
2023/03/30 05:07:30;;;;;;;3.38;2.10;;;;;;;11.78;98.62;100364.66;5108821;28;20035;-70
2023/03/30 05:09:55;;;;;;;4.93;2.22;;;;;;;11.72;98.94;100359.38;5090427;28;20054;-70
2023/03/30 05:12:21;;;;;;;7.70;2.88;;;;;;;11.78;99.39;100375.34;5092982;28;20058;-70
2023/03/30 05:14:46;;;;;;;12.80;3.42;;;;;;;11.79;99.85;100392.19;5112752;28;20032;-70
2023/03/30 05:17:11;;;;;;;5.82;3.33;;;;;;;11.79;100.00;100409.03;5112540;28;20054;-70
2023/03/30 05:19:37;;;;;;;6.80;2.35;;;;;;;11.74;100.00;100402.72;5112526;28;20058;-71
2023/03/30 05:22:02;;;;;;;8.98;3.47;;;;;;;11.72;100.00;100405.59;5112506;28;20031;-69
2023/03/30 05:24:27;;;;;;;5.43;2.47;;;;;;;11.62;100.00;100407.91;5094303;28;20023;-68
2023/03/30 05:26:53;;;;;;;7.90;2.80;;;;;;;11.53;100.00;100418.03;5105107;28;20398;-70
2023/03/30 05:29:18;;;;;;;6.47;3.10;;;;;;;11.47;100.00;100412.72;5092930;28;20364;-69
2023/03/30 05:31:43;;;;;;;11.43;4.28;;;;;;;11.37;100.00;100408.66;5108127;28;20077;-69
2023/03/30 05:34:09;;;;;;;6.53;2.97;;;;;;;11.31;100.00;100422.03;5112650;28;20522;-69
2023/03/30 05:36:34;;;;;;;7.22;3.00;;;;;;;11.25;100.00;100430.91;5112327;28;20639;-70
2023/03/30 05:39:00;;;;;;;7.40;2.90;;;;;;;11.14;100.00;100419.03;5112208;28;20059;-69
2023/03/30 05:41:27;;;;;;;4.03;2.47;;;;;;;11.12;100.00;100424.56;5093824;28;20024;-69
2023/03/30 05:43:53;;;;;;;8.43;2.70;;;;;;;11.10;100.00;100421.28;5112578;28;20042;-70
2023/03/30 05:46:18;;;;;;;5.65;2.30;;;;;;;11.02;100.00;100408.16;5112128;28;20028;-70
2023/03/30 05:48:43;;;;;;;7.88;3.38;;;;;;;11.08;100.00;100423.38;5093899;28;20036;-70
2023/03/30 05:51:09;;;;;;;5.20;2.63;;;;;;;11.03;100.00;100409.84;5111968;28;20081;-70
2023/03/30 05:53:35;;;;;;;7.65;3.40;;;;;;;11.08;100.00;100422.53;5112184;28;20383;-70
2023/03/30 05:56:00;;;;;;;7.80;3.53;;;;;;;11.07;100.00;100429.72;5112075;28;20444;-70
2023/03/30 05:58:26;;;;;;;7.03;3.55;;;;;;;11.04;100.00;100421.31;5093887;28;20031;-70
2023/03/30 06:00:53;;;;;;;6.72;3.03;;;;;;;10.98;100.00;100409.63;5098663;28;20027;-70
2023/03/30 06:03:18;;;;;;;5.75;2.60;;;;;;;11.02;100.00;100410.03;5092596;28;20043;-70
2023/03/30 06:05:44;;;;;;;6.22;2.20;;;;;;;11.02;100.00;100426.03;5092556;28;20035;-69
2023/03/30 06:08:10;;;;;;;7.13;2.75;;;;;;;11.00;100.00;100417.41;5092366;28;20028;-70
2023/03/30 06:10:36;;;;;;;9.82;3.60;;;;;;;11.01;100.00;100416.41;5091635;28;20048;-69
2023/03/30 06:13:02;;;;;;;4.95;3.00;;;;;;;11.01;100.00;100424.41;5092050;28;20039;-69
2023/03/30 06:15:28;;;;;;;5.25;2.67;;;;;;;11.00;100.00;100431.56;5091923;28;20467;-70
2023/03/30 06:17:53;;;;;;;4.90;2.65;;;;;;;10.96;100.00;100438.38;5074079;28;20031;-70
2023/03/30 06:20:20;;;;;;;4.75;2.75;;;;;;;10.95;100.00;100434.91;5092096;28;20027;-70
2023/03/30 06:22:50;;;;;;;5.45;3.00;;;;;;;10.93;100.00;100436.94;5091926;28;20093;-70
2023/03/30 06:25:16;;;;;;;7.93;3.60;;;;;;;10.91;100.00;100438.19;5091692;28;20573;-70
2023/03/30 06:27:41;;;;;;;7.50;3.55;;;;;;;10.85;100.00;100434.50;5091810;28;20039;-70
2023/03/30 06:30:08;;;;;;;5.38;2.80;;;;;;;10.90;100.00;100442.69;5091801;28;20590;-70
2023/03/30 06:32:35;;;;;;;6.53;2.95;;;;;;;10.88;100.00;100438.59;5091841;28;20340;-70
2023/03/30 06:35:02;;;;;;;6.45;3.42;;;;;;;10.94;100.00;100441.25;5091770;28;20036;-71
2023/03/30 06:37:29;;;;;;;8.73;3.00;;;;;;;10.94;100.00;100440.44;5091915;28;20059;-70
2023/03/30 06:39:55;;;;;;;9.45;4.55;;;;;;;10.96;100.00;100457.88;5091913;28;20059;-70
2023/03/30 06:42:20;;;;;;;8.68;3.95;;;;;;;11.01;100.00;100443.91;5091869;28;20085;-70
2023/03/30 06:44:46;;;;;;;9.82;3.05;;;;;;;11.07;100.00;100452.91;5091764;28;20032;-70
2023/03/30 06:47:11;;;;;;;7.18;3.53;;;;;;;11.07;100.00;100444.91;5091673;28;20032;-70
2023/03/30 06:49:37;;;;;;;6.95;2.83;;;;;;;11.20;100.00;100460.88;5091728;28;20031;-70
2023/03/30 06:52:02;;;;;;;11.98;3.20;;;;;;;11.28;100.00;100471.31;5091425;28;20485;-70
2023/03/30 06:54:27;;;;;;;5.65;3.00;;;;;;;11.31;100.00;100462.06;5091548;28;20119;-70
2023/03/30 06:56:53;;;;;;;9.70;3.90;;;;;;;11.29;100.00;100464.13;5091217;28;20075;-69
2023/03/30 06:59:18;;;;;;;18.13;3.88;;;;;;;11.26;100.00;100457.38;5091447;28;20073;-69
2023/03/30 07:01:44;;;;;;;7.80;2.67;;;;;;;11.25;100.00;100460.25;5091057;28;20036;-69
2023/03/30 07:04:10;;;;;;;10.05;3.85;;;;;;;11.23;100.00;100455.13;5073086;28;20040;-69
2023/03/30 07:06:36;;;;;;;11.70;4.10;;;;;;;11.21;100.00;100461.69;5090920;28;20032;-69
2023/03/30 07:09:03;;;;;;;9.73;3.88;;;;;;;11.10;100.00;100468.50;5091150;28;20042;-69
2023/03/30 07:11:28;;;;;;;7.88;2.83;;;;;;;11.08;100.00;100474.06;5090904;28;20044;-69
2023/03/30 07:13:57;;;;;;;11.90;3.35;;;;;;;11.13;100.00;100468.09;5091132;28;20479;-69
2023/03/30 07:16:22;;;;;;;11.98;3.20;;;;;;;11.22;100.00;100471.38;5091067;28;20043;-69
2023/03/30 07:18:48;;;;;;;10.73;3.17;;;;;;;11.29;100.00;100472.97;5091107;28;20031;-70
2023/03/30 07:21:13;;;;;;;9.85;2.58;;;;;;;11.38;100.00;100479.72;5090965;28;20951;-69
2023/03/30 07:23:39;;;;;;;11.32;3.33;;;;;;;11.47;100.00;100479.47;5091077;28;20360;-69
2023/03/30 07:26:04;;;;;;;9.90;2.20;;;;;;;11.53;100.00;100475.97;5090969;28;20050;-70
2023/03/30 07:28:30;;;;;;;7.00;3.03;;;;;;;11.62;100.00;100483.50;5102364;28;20486;-70
2023/03/30 07:31:06;;;;;;;11.52;2.83;;;;;;;11.71;100.00;100472.59;5110335;28;20036;-70
2023/03/30 07:33:31;;;;;;;6.07;1.92;;;;;;;11.77;100.00;100477.09;5109624;28;20074;-70
2023/03/30 07:35:57;;;;;;;6.65;2.17;;;;;;;11.90;100.00;100481.56;5105832;28;20062;-71
2023/03/30 07:38:22;;;;;;;5.65;2.33;;;;;;;12.06;100.00;100487.22;5102429;28;20032;-70
2023/03/30 07:40:48;;;;;;;10.00;2.15;;;;;;;12.23;100.00;100489.38;5088130;28;20489;-70
2023/03/30 07:43:13;;;;;;;9.77;4.30;;;;;;;12.37;100.00;100492.78;5068852;28;20075;-71
2023/03/30 07:45:38;;;;;;;3.63;1.95;;;;;;;12.46;100.00;100491.47;5069141;28;20088;-72
2023/03/30 07:48:04;;;;;;;9.43;2.40;;;;;;;12.45;100.00;100482.63;5064545;28;20079;-71
2023/03/30 07:50:29;;;;;;;17.48;3.72;;;;;;;12.61;100.00;100494.63;5087029;28;20024;-71
2023/03/30 07:52:55;;;;;;;7.22;2.72;;;;;;;12.64;100.00;100502.22;5106220;28;20430;-69
2023/03/30 07:55:20;;;;;;;11.15;2.70;;;;;;;12.58;100.00;100492.41;5091732;28;20043;-69
2023/03/30 07:57:46;;;;;;;7.00;2.03;;;;;;;12.58;100.00;100510.31;5109870;28;20027;-69
2023/03/30 08:00:13;;;;;;;10.32;2.65;;;;;;;12.59;100.00;100512.75;5109430;28;20447;-69
2023/03/30 08:02:39;;;;;;;7.10;2.42;;;;;;;12.61;100.00;100518.72;5091044;28;20532;-70
2023/03/30 08:05:05;;;;;;;11.48;3.25;;;;;;;12.65;100.00;100519.09;5109737;28;20020;-69
2023/03/30 08:07:33;;;;;;;4.15;1.92;;;;;;;12.74;100.00;100508.94;5109643;28;20055;-70
2023/03/30 08:09:59;;;;;;;12.35;3.10;;;;;;;12.75;100.00;100513.25;5109459;28;20464;-70
2023/03/30 08:12:26;;;;;;;19.02;2.90;;;;;;;12.79;100.00;100525.97;5090049;28;20055;-69
2023/03/30 08:14:51;;;;;;;9.18;3.25;;;;;;;12.88;100.00;100527.31;5108030;28;20123;-69
2023/03/30 08:17:18;;;;;;;8.43;2.42;;;;;;;12.90;100.00;100535.16;5109261;28;20111;-69
2023/03/30 08:19:43;;;;;;;5.15;2.97;;;;;;;12.88;100.00;100526.50;5109249;28;20032;-69
2023/03/30 08:22:09;;;;;;;12.73;2.90;;;;;;;12.98;100.00;100526.03;5108998;28;20516;-69
2023/03/30 08:24:34;;;;;;;6.25;2.63;;;;;;;13.14;100.00;100533.47;5109228;28;20038;-69
2023/03/30 08:27:00;;;;;;;11.50;3.00;;;;;;;13.29;100.00;100533.97;5109659;28;20075;-69
2023/03/30 08:29:25;;;;;;;5.50;2.60;;;;;;;13.64;100.00;100530.69;5090956;28;20031;-69
2023/03/30 08:31:51;;;;;;;10.18;2.88;;;;;;;13.84;100.00;100530.44;5108562;28;20028;-69
2023/03/30 08:34:17;;;;;;;6.60;2.40;;;;;;;13.87;100.00;100537.22;5109073;28;20055;-70
2023/03/30 08:36:42;;;;;;;9.35;3.15;;;;;;;13.74;98.13;100532.84;5109078;28;20023;-69
2023/03/30 08:39:07;;;;;;;15.85;4.10;;;;;;;13.67;99.14;100530.22;5108912;28;20440;-69
2023/03/30 08:42:01;;;;;;;8.65;3.45;;;;;;;13.61;99.40;100539.19;5109011;28;20070;-69
2023/03/30 08:44:35;;;;;;;9.10;2.90;;;;;;;13.57;98.27;100543.34;5108942;28;20027;-69
2023/03/30 08:47:04;;;;;;;12.05;4.32;;;;;;;13.51;99.50;100537.00;5111449;28;20404;-70
2023/03/30 08:49:36;;;;;;;12.75;2.90;;;;;;;13.53;98.20;100534.94;5113137;28;20470;-69
2023/03/30 08:52:02;;;;;;;;;;;;;;;13.69;98.58;100538.88;5113337;28;20036;-69
2023/03/30 08:54:30;;;;;;;13.60;3.97;;;;;;;13.80;96.14;100538.09;5112966;28;19914;-69
2023/03/30 08:57:07;;;;;;;14.60;4.07;;;;;;;13.87;95.36;100542.59;5112874;28;20027;-69
2023/03/30 09:00:11;;;;;;;13.27;3.40;;;;;;;14.01;95.51;100522.59;5112980;28;20036;-69
2023/03/30 09:02:45;;;;;;;10.15;2.67;;;;;;;14.28;94.51;100530.25;5112696;28;20112;-69
2023/03/30 09:05:31;;;;;;;8.55;2.78;;;;;;;14.37;92.68;100532.38;5112665;28;20035;-70
2023/03/30 09:08:16;;;;;;;12.82;4.28;;;;;;;14.56;92.80;100546.56;5112913;28;20107;-69
2023/03/30 09:10:46;;;;;;;7.72;2.75;;;;;;;14.39;90.75;100545.59;5112274;28;20047;-69
2023/03/30 09:13:16;;;;;;;8.50;2.45;;;;;;;14.21;90.43;100535.72;5112015;28;20082;-70
2023/03/30 09:15:48;;;;;;;15.82;4.43;;;;;;;14.15;89.80;100540.16;5112555;28;20046;-70
2023/03/30 09:18:36;;;;;;;8.07;2.40;;;;;;;14.22;90.41;100535.47;5112888;28;20106;-70
2023/03/30 09:21:04;;;;;;;13.73;4.30;;;;;;;14.21;89.89;100554.50;5112966;28;20027;-69
2023/03/30 09:23:32;;;;;;;15.38;3.85;;;;;;;14.15;88.52;100550.88;5095845;28;20035;-70
2023/03/30 09:26:06;;;;;;;12.25;3.63;;;;;;;14.02;88.83;100562.59;5093007;28;20035;-69
2023/03/30 09:28:37;;;;;;;10.98;2.85;;;;;;;13.89;87.65;100553.91;5093028;28;20040;-69
2023/03/30 09:31:25;;;;;;;14.10;4.30;;;;;;;13.93;88.40;100569.28;5074734;28;20395;-69
2023/03/30 09:34:15;;;;;;;9.05;3.17;;;;;;;13.87;89.30;100569.41;5092977;28;20111;-69
2023/03/30 09:36:45;;;;;;;11.70;3.25;;;;;;;13.84;88.97;100573.34;5093030;28;20024;-69
2023/03/30 09:39:19;;;;;;;12.43;4.40;;;;;;;13.81;85.30;100582.66;5093007;28;20107;-69
2023/03/30 09:42:23;;;;;;;13.40;3.35;;;;;;;13.74;88.37;100573.88;5112302;28;20023;-70
2023/03/30 09:44:48;;;;;;;17.52;4.55;;;;;;;13.59;87.58;100587.63;5099993;28;20122;-70
2023/03/30 09:47:35;;;;;;;14.07;3.97;;;;;;;13.60;88.08;100580.44;5112372;28;20526;-69
2023/03/30 09:50:05;;;;;;;13.68;4.15;;;;;;;13.67;88.33;100591.88;5111889;28;20647;-70
2023/03/30 09:52:36;;;;;;;13.68;4.55;;;;;;;13.98;88.76;100580.16;5111804;28;20600;-69
2023/03/30 09:55:21;;;;;;;11.57;3.97;;;;;;;14.57;89.43;100590.34;5111776;28;20119;-69
2023/03/30 09:57:51;;;;;;;10.70;3.65;;;;;;;14.88;84.15;100600.81;5093484;28;20168;-69
2023/03/30 10:00:30;;;;;;;14.88;3.70;;;;;;;15.06;83.87;100594.53;5111955;28;20040;-69
2023/03/30 10:03:01;;;;;;;7.78;3.45;;;;;;;14.96;81.32;100591.59;5111953;28;20046;-69
2023/03/30 10:05:28;;;;;;;15.80;4.18;;;;;;;15.01;83.22;100602.47;5094557;28;20035;-69
2023/03/30 10:07:57;;;;;;;10.50;3.80;;;;;;;14.90;79.19;100587.94;5111726;28;20089;-71
2023/03/30 10:10:28;;;;;;;14.75;4.43;;;;;;;14.88;80.13;100597.28;5111788;28;20028;-71
2023/03/30 10:13:00;;;;;;;9.43;3.57;;;;;;;14.77;79.98;100592.72;5111456;28;20101;-71
2023/03/30 10:15:30;;;;;;;14.02;3.42;;;;;;;14.86;80.01;100592.16;5111810;28;20073;-71
2023/03/30 10:18:01;;;;;;;14.77;3.88;;;;;;;14.94;78.34;100593.69;5111757;28;20405;-71
2023/03/30 10:20:28;;;;;;;14.30;3.67;;;;;;;14.88;77.54;100605.34;5111534;28;20019;-72
2023/03/30 10:23:18;;;;;;;25.15;4.40;;;;;;;14.64;80.32;100594.53;5111374;28;20038;-71
2023/03/30 10:25:48;;;;;;;19.35;5.00;;;;;;;14.58;81.05;100605.41;5098962;28;20055;-71
2023/03/30 10:28:24;;;;;;;12.38;3.22;;;;;;;14.49;81.18;100610.25;5111367;28;20053;-71
2023/03/30 10:30:55;;;;;;;10.73;3.38;;;;;;;14.50;80.37;100601.13;5111454;28;20036;-71
2023/03/30 10:33:21;;;;;;;;;;;;;;;14.53;81.45;100606.06;5111953;28;20966;-71
2023/03/30 10:35:52;;;;;;;15.75;5.53;;;;;;;14.54;80.38;100607.72;5099194;28;19922;-71
2023/03/30 10:38:18;;;;;;;11.95;3.85;;;;;;;14.82;83.14;100601.72;5091971;28;20039;-71
2023/03/30 10:40:44;;;;;;;10.73;3.70;;;;;;;15.11;79.37;100605.34;5091824;28;20020;-72
2023/03/30 10:43:15;;;;;;;14.70;4.30;;;;;;;15.32;79.43;100608.53;5091031;28;20031;-71
2023/03/30 10:45:49;;;;;;;19.73;4.27;;;;;;;15.56;77.92;100604.78;5091409;28;20576;-71
2023/03/30 10:48:35;;;;;;;12.73;3.60;;;;;;;15.66;77.34;100603.34;5091637;28;20031;-71
2023/03/30 10:51:25;;;;;;;15.32;3.60;;;;;;;15.75;77.72;100613.56;5091095;28;20020;-71
2023/03/30 10:54:02;;;;;;;12.05;4.35;;;;;;;15.72;74.41;100610.53;5091090;28;20043;-70
2023/03/30 10:56:42;;;;;;;14.85;4.05;;;;;;;15.66;75.83;100606.84;5088344;28;20038;-70
2023/03/30 10:59:52;;;;;;;9.75;4.15;;;;;;;15.45;77.96;100612.84;5087528;28;20106;-69
2023/03/30 11:02:34;;;;;;;17.92;3.67;;;;;;;15.27;76.23;100603.88;5046300;28;20101;-70
2023/03/30 11:05:13;;;;;;;10.63;2.75;;;;;;;15.20;76.94;100607.72;5089430;28;20031;-70
2023/03/30 11:07:54;;;;;;;17.52;3.90;;;;;;;15.11;75.24;100589.25;5089467;28;20020;-71
2023/03/30 11:10:30;;;;;;;11.60;3.50;;;;;;;14.93;75.59;100610.81;5086391;28;20093;-71
2023/03/30 11:13:09;;;;;;;10.30;2.97;;;;;;;14.86;77.59;100624.38;5089647;28;20036;-73
2023/03/30 11:15:47;;;;;;;18.15;3.75;;;;;;;14.78;77.59;100622.03;5087237;28;20130;-74
2023/03/30 11:18:19;;;;;;;13.40;4.35;;;;;;;14.83;76.75;100618.66;5084366;28;20382;-74
2023/03/30 11:20:56;;;;;;;13.82;3.88;;;;;;;14.91;77.94;100621.00;5084631;28;20031;-74
2023/03/30 11:23:43;;;;;;;12.13;4.68;;;;;;;15.20;77.00;100618.47;5086731;28;20043;-74
2023/03/30 11:26:12;;;;;;;15.68;4.47;;;;;;;15.41;75.10;100625.94;5087096;28;20471;-74
2023/03/30 11:29:08;;;;;;;16.80;4.43;;;;;;;15.56;76.99;100614.69;5087375;28;20363;-74
2023/03/30 11:31:52;;;;;;;17.05;5.22;;;;;;;15.74;76.90;100609.22;5085308;28;20041;-74
2023/03/30 11:34:45;;;;;;;12.02;3.88;;;;;;;15.77;74.25;100607.91;5084761;28;20445;-75
2023/03/30 11:37:19;;;;;;;13.70;3.75;;;;;;;15.88;74.42;100596.34;5088614;28;21186;-75